createdAt,value
2023-10-26T00:01:45.379Z,2.85
2023-10-26T00:04:12.115Z,3.30
2023-10-26T00:06:38.855Z,3.63
2023-10-26T00:09:05.833Z,3.28
2023-10-26T00:11:32.589Z,3.10
2023-10-26T00:13:59.266Z,3.80
2023-10-26T00:16:25.911Z,3.30
2023-10-26T00:18:52.799Z,3.33
2023-10-26T00:21:20.278Z,3.47
2023-10-26T00:23:47.129Z,3.00
2023-10-26T00:26:13.879Z,2.50
2023-10-26T00:28:41.094Z,3.05
2023-10-26T00:31:07.855Z,3.63
2023-10-26T00:33:34.593Z,3.65
2023-10-26T00:36:01.305Z,3.38
2023-10-26T00:38:27.961Z,3.05
2023-10-26T00:40:54.664Z,2.65
2023-10-26T00:43:22.872Z,3.00
2023-10-26T00:45:53.727Z,3.15
2023-10-26T00:48:21.382Z,2.95
2023-10-26T00:50:49.869Z,3.60
2023-10-26T00:53:19.136Z,4.10
2023-10-26T00:55:48.590Z,3.00
2023-10-26T00:58:17.397Z,3.15
2023-10-26T01:00:44.934Z,2.83
2023-10-26T01:03:12.752Z,2.90
2023-10-26T01:05:39.447Z,2.72
2023-10-26T01:08:06.398Z,2.70
2023-10-26T01:10:35.870Z,2.67
2023-10-26T01:13:02.676Z,3.03
2023-10-26T01:15:31.603Z,3.15
2023-10-26T01:17:59.548Z,3.22
2023-10-26T01:20:26.398Z,3.92
2023-10-26T01:22:53.098Z,3.22
2023-10-26T01:25:19.908Z,3.97
2023-10-26T01:27:46.598Z,4.18
2023-10-26T01:30:14.194Z,3.40
2023-10-26T01:32:41.073Z,2.97
2023-10-26T01:35:08.101Z,3.53
2023-10-26T01:37:34.778Z,3.53
2023-10-26T01:40:01.757Z,3.42
2023-10-26T01:42:28.602Z,4.38
2023-10-26T01:44:56.616Z,5.50
2023-10-26T01:47:23.465Z,5.05
2023-10-26T01:49:50.176Z,4.82
2023-10-26T01:52:16.897Z,4.70
2023-10-26T01:54:43.973Z,4.90
2023-10-26T01:57:11.022Z,4.63
2023-10-26T01:59:37.879Z,4.22
2023-10-26T02:02:04.889Z,3.88
2023-10-26T02:04:31.514Z,3.35
2023-10-26T02:06:58.258Z,4.28
2023-10-26T02:09:25.065Z,3.80
2023-10-26T02:11:51.845Z,3.58
2023-10-26T02:14:19.184Z,5.15
2023-10-26T02:16:46.262Z,6.72
2023-10-26T02:19:15.319Z,5.95
2023-10-26T02:21:43.502Z,5.32
2023-10-26T02:24:10.313Z,4.97
2023-10-26T02:26:37.012Z,4.97
2023-10-26T02:29:03.802Z,4.22
2023-10-26T02:31:30.608Z,4.43
2023-10-26T02:33:57.422Z,4.45
2023-10-26T02:36:24.282Z,4.53
2023-10-26T02:38:51.031Z,3.50
2023-10-26T02:41:17.765Z,4.15
2023-10-26T02:43:44.421Z,4.10
2023-10-26T02:46:11.100Z,5.40
2023-10-26T02:48:38.605Z,5.22
2023-10-26T02:51:05.773Z,5.28
2023-10-26T02:53:33.377Z,4.70
2023-10-26T02:56:00.210Z,3.80
2023-10-26T02:58:26.908Z,3.63
2023-10-26T03:00:56.627Z,4.03
2023-10-26T03:03:24.127Z,3.47
2023-10-26T03:05:51.095Z,3.47
2023-10-26T03:08:18.260Z,3.55
2023-10-26T03:10:45.230Z,3.08
2023-10-26T03:13:12.854Z,4.07
2023-10-26T03:15:39.574Z,3.70
2023-10-26T03:18:08.020Z,3.40
2023-10-26T03:20:34.832Z,4.60
2023-10-26T03:23:01.554Z,5.10
2023-10-26T03:25:28.562Z,3.47
2023-10-26T03:27:55.732Z,3.20
2023-10-26T03:30:22.563Z,3.10
2023-10-26T03:32:49.357Z,1.90
2023-10-26T03:35:16.111Z,1.38
2023-10-26T03:37:42.903Z,1.35
2023-10-26T03:40:11.692Z,1.55
2023-10-26T03:42:38.388Z,1.25
2023-10-26T03:45:05.468Z,1.40
2023-10-26T03:47:32.292Z,1.67
2023-10-26T03:49:59.063Z,1.63
2023-10-26T03:52:25.819Z,1.48
2023-10-26T03:54:52.718Z,1.98
2023-10-26T03:57:19.577Z,1.63
2023-10-26T03:59:46.352Z,1.42
2023-10-26T04:02:13.136Z,1.98
2023-10-26T04:04:41.595Z,2.20
2023-10-26T04:07:09.246Z,1.80
2023-10-26T04:09:36.157Z,1.60
2023-10-26T04:12:02.912Z,1.52
2023-10-26T04:14:29.687Z,2.03
2023-10-26T04:17:02.207Z,2.50
2023-10-26T04:19:28.947Z,2.00
2023-10-26T04:21:55.641Z,1.50
2023-10-26T04:24:22.451Z,1.77
2023-10-26T04:26:49.208Z,1.13
2023-10-26T04:29:16.030Z,1.65
2023-10-26T04:31:42.855Z,1.98
2023-10-26T04:34:09.598Z,1.45
2023-10-26T04:36:36.268Z,1.55
2023-10-26T04:39:03.045Z,1.40
2023-10-26T04:41:29.738Z,1.50
2023-10-26T04:43:56.454Z,2.00
2023-10-26T04:46:23.138Z,1.67
2023-10-26T04:48:49.937Z,1.83
2023-10-26T04:51:16.663Z,2.58
2023-10-26T04:53:43.367Z,4.32
2023-10-26T04:56:12.455Z,2.28
2023-10-26T04:58:39.491Z,2.90
2023-10-26T05:01:06.846Z,1.50
2023-10-26T05:03:33.687Z,2.10
2023-10-26T05:06:00.611Z,1.50
2023-10-26T05:08:27.568Z,1.52
2023-10-26T05:10:54.302Z,1.85
2023-10-26T05:13:21.028Z,2.05
2023-10-26T05:15:47.726Z,2.10
2023-10-26T05:18:14.542Z,1.70
2023-10-26T05:20:41.265Z,3.17
2023-10-26T05:23:09.525Z,1.38
2023-10-26T05:25:37.508Z,2.13
2023-10-26T05:28:04.823Z,2.22
2023-10-26T05:30:31.642Z,2.00
2023-10-26T05:32:58.467Z,1.65
2023-10-26T05:35:25.341Z,2.20
2023-10-26T05:37:53.515Z,1.75
2023-10-26T05:40:20.349Z,1.77
2023-10-26T05:42:47.025Z,1.85
2023-10-26T05:45:13.828Z,1.90
2023-10-26T05:47:41.104Z,2.08
2023-10-26T05:50:09.053Z,1.70
2023-10-26T05:52:35.742Z,1.58
2023-10-26T05:55:03.957Z,1.73
2023-10-26T05:57:30.702Z,2.10
2023-10-26T05:59:57.509Z,1.30
2023-10-26T06:02:25.250Z,2.28
2023-10-26T06:04:52.165Z,1.70
2023-10-26T06:07:18.886Z,1.42
2023-10-26T06:09:45.501Z,2.33
2023-10-26T06:12:12.441Z,1.70
2023-10-26T06:14:39.252Z,1.92
2023-10-26T06:17:05.975Z,2.40
2023-10-26T06:19:33.185Z,1.77
2023-10-26T06:21:59.874Z,1.55
2023-10-26T06:24:26.614Z,1.40
2023-10-26T06:26:53.360Z,2.45
2023-10-26T06:29:20.539Z,1.98
2023-10-26T06:31:47.221Z,2.10
2023-10-26T06:34:14.314Z,1.77
2023-10-26T06:36:41.086Z,1.77
2023-10-26T06:39:07.872Z,1.55
2023-10-26T06:41:34.677Z,1.52
2023-10-26T06:44:01.436Z,2.40
2023-10-26T06:46:28.175Z,1.92
2023-10-26T06:48:55.722Z,1.70
2023-10-26T06:51:23.698Z,2.05
2023-10-26T06:53:50.930Z,2.35
2023-10-26T06:56:17.665Z,2.33
2023-10-26T06:58:44.754Z,6.28
2023-10-26T07:01:20.691Z,2.70
2023-10-26T07:03:49.737Z,1.52
2023-10-26T07:06:16.788Z,1.92
2023-10-26T07:08:43.456Z,2.67
2023-10-26T07:11:10.179Z,1.70
2023-10-26T07:13:36.879Z,2.42
2023-10-26T07:16:04.588Z,2.50
2023-10-26T07:18:31.447Z,1.95
2023-10-26T07:20:58.408Z,1.88
2023-10-26T07:23:25.197Z,2.60
2023-10-26T07:25:51.987Z,2.22
2023-10-26T07:28:18.720Z,1.80
2023-10-26T07:30:45.923Z,2.90
2023-10-26T07:33:12.687Z,2.67
2023-10-26T07:35:42.275Z,1.90
2023-10-26T07:38:36.990Z,2.30
2023-10-26T07:41:01.536Z,2.15
2023-10-26T07:43:29.133Z,1.90
2023-10-26T07:45:56.805Z,1.80
2023-10-26T07:48:23.590Z,2.45
2023-10-26T07:50:52.137Z,2.25
2023-10-26T07:53:18.865Z,2.10
2023-10-26T07:55:45.988Z,1.80
2023-10-26T07:58:12.676Z,1.27
2023-10-26T08:00:39.392Z,2.13
2023-10-26T08:03:06.266Z,1.40
2023-10-26T08:05:33.006Z,1.50
2023-10-26T08:07:59.760Z,1.77
2023-10-26T08:10:27.391Z,1.38
2023-10-26T08:12:54.669Z,1.85
2023-10-26T08:16:28.970Z,1.33
2023-10-26T08:18:08.780Z,1.27
2023-10-26T08:20:35.646Z,1.50
2023-10-26T08:23:05.611Z,1.38
2023-10-26T08:25:38.633Z,1.42
2023-10-26T08:28:05.393Z,1.88
2023-10-26T08:30:32.025Z,2.35
2023-10-26T08:33:01.102Z,1.63
2023-10-26T08:35:27.996Z,1.70
2023-10-26T08:37:55.188Z,1.77
2023-10-26T08:40:22.337Z,1.30
2023-10-26T08:42:49.076Z,1.67
2023-10-26T08:45:23.886Z,1.20
2023-10-26T08:47:51.658Z,1.90
2023-10-26T08:50:23.775Z,1.35
2023-10-26T08:52:52.592Z,8.38
2023-10-26T08:55:19.452Z,3.13
2023-10-26T08:57:52.068Z,1.25
2023-10-26T09:00:19.697Z,1.10
2023-10-26T09:02:49.391Z,1.02
2023-10-26T09:05:16.640Z,1.50
2023-10-26T09:07:43.429Z,1.08
2023-10-26T09:10:10.727Z,2.03
2023-10-26T09:12:37.863Z,1.60
2023-10-26T09:15:11.662Z,0.98
2023-10-26T09:17:38.698Z,1.48
2023-10-26T09:20:26.116Z,2.33
2023-10-26T09:22:53.216Z,1.73
2023-10-26T09:25:20.295Z,2.00
2023-10-26T09:27:47.461Z,1.77
2023-10-26T09:30:30.842Z,1.90
2023-10-26T09:32:58.533Z,1.60
2023-10-26T09:35:34.953Z,1.83
2023-10-26T09:38:01.988Z,2.33
2023-10-26T09:40:29.387Z,2.30
2023-10-26T09:42:59.513Z,2.40
2023-10-26T09:45:26.943Z,2.28
2023-10-26T09:47:54.058Z,1.88
2023-10-26T09:50:22.163Z,2.03
2023-10-26T09:52:49.920Z,2.75
2023-10-26T09:55:17.424Z,1.40
2023-10-26T09:57:54.572Z,2.28
2023-10-26T10:00:30.648Z,1.45
2023-10-26T10:03:14.508Z,1.75
2023-10-26T10:05:48.128Z,2.38
2023-10-26T10:08:15.473Z,1.75
2023-10-26T10:11:18.517Z,1.95
2023-10-26T10:13:45.609Z,2.60
2023-10-26T10:16:38.014Z,3.25
2023-10-26T10:19:24.613Z,1.27
2023-10-26T10:21:53.303Z,1.30
2023-10-26T10:24:46.374Z,1.33
2023-10-26T10:27:16.724Z,1.02
2023-10-26T10:29:43.988Z,1.20
2023-10-26T10:32:12.275Z,1.17
2023-10-26T10:34:46.989Z,1.30
2023-10-26T10:40:15.873Z,1.40
2023-10-26T10:42:52.892Z,0.90
2023-10-26T10:45:20.264Z,1.10
2023-10-26T10:47:50.438Z,1.20
2023-10-26T10:50:25.154Z,0.85
2023-10-26T10:52:56.455Z,1.40
2023-10-26T10:55:29.926Z,1.10
2023-10-26T10:57:56.727Z,0.95
2023-10-26T11:00:25.812Z,0.90
2023-10-26T11:03:00.649Z,0.98
2023-10-26T11:05:41.249Z,0.98
2023-10-26T11:08:08.889Z,1.00
2023-10-26T11:10:36.255Z,0.95
2023-10-26T11:13:03.726Z,0.88
2023-10-26T11:15:38.342Z,0.82
2023-10-26T11:18:08.020Z,0.80
2023-10-26T11:20:43.737Z,1.00
2023-10-26T11:23:12.171Z,0.82
2023-10-26T11:25:39.633Z,1.35
2023-10-26T11:28:07.654Z,1.40
2023-10-26T11:30:51.975Z,0.80
2023-10-26T11:33:39.756Z,0.93
2023-10-26T11:36:10.921Z,1.40
2023-10-26T11:38:49.294Z,1.02
2023-10-26T11:41:26.902Z,0.90
2023-10-26T11:43:53.720Z,1.05
2023-10-26T11:46:34.591Z,0.80
2023-10-26T11:49:08.896Z,0.60
2023-10-26T11:51:38.654Z,1.15
2023-10-26T11:54:13.676Z,0.93
2023-10-26T11:56:40.470Z,1.15
2023-10-26T11:59:07.231Z,0.93
2023-10-26T12:01:34.076Z,0.93
2023-10-26T12:04:00.837Z,0.90
2023-10-26T12:06:31.118Z,1.10
2023-10-26T12:08:57.905Z,1.08
2023-10-26T12:11:24.820Z,1.08
2023-10-26T12:13:51.559Z,0.80
2023-10-26T12:16:18.363Z,1.10
2023-10-26T12:18:45.162Z,0.80
2023-10-26T12:21:11.964Z,0.77
2023-10-26T12:23:39.005Z,1.52
2023-10-26T12:26:05.659Z,0.80
2023-10-26T12:28:32.374Z,0.82
2023-10-26T12:30:59.352Z,0.80
2023-10-26T12:33:26.187Z,0.50
2023-10-26T12:35:52.868Z,1.17
2023-10-26T12:38:23.409Z,0.77
2023-10-26T12:40:50.417Z,1.27
2023-10-26T12:43:17.641Z,0.73
2023-10-26T12:45:44.485Z,0.65
2023-10-26T12:48:14.040Z,0.95
2023-10-26T12:50:40.737Z,1.25
2023-10-26T12:53:07.514Z,0.68
2023-10-26T12:55:35.671Z,0.60
2023-10-26T12:58:02.535Z,1.02
2023-10-26T13:00:29.383Z,0.60
2023-10-26T13:02:57.733Z,1.33
2023-10-26T13:05:24.480Z,0.80
2023-10-26T13:07:52.073Z,0.80
2023-10-26T13:10:18.805Z,0.68
2023-10-26T13:12:48.300Z,1.85
2023-10-26T13:15:21.413Z,0.88
2023-10-26T13:17:48.527Z,2.80
2023-10-26T13:20:15.283Z,4.45
2023-10-26T13:22:41.980Z,1.25
2023-10-26T13:25:09.039Z,0.90
2023-10-26T13:27:35.839Z,1.10
2023-10-26T13:30:02.915Z,0.70
2023-10-26T13:32:29.620Z,0.98
2023-10-26T13:34:56.331Z,0.55
2023-10-26T13:37:23.053Z,0.73
2023-10-26T13:39:49.812Z,0.60
2023-10-26T13:42:16.541Z,0.90
2023-10-26T13:44:45.002Z,8.23
2023-10-26T13:47:12.214Z,4.18
2023-10-26T13:49:39.218Z,1.92
2023-10-26T13:52:06.282Z,0.77
2023-10-26T13:54:33.063Z,0.90
2023-10-26T13:56:59.904Z,0.68
2023-10-26T13:59:26.607Z,0.80
2023-10-26T14:01:53.333Z,1.38
2023-10-26T14:04:20.089Z,0.68
2023-10-26T14:06:46.907Z,0.95
2023-10-26T14:09:14.656Z,2.35
2023-10-26T14:11:41.369Z,1.83
2023-10-26T14:14:08.169Z,2.22
2023-10-26T14:16:34.881Z,2.00
2023-10-26T14:19:04.836Z,1.05
2023-10-26T14:21:31.619Z,1.42
2023-10-26T14:23:58.348Z,2.25
2023-10-26T14:26:25.091Z,1.67
2023-10-26T14:28:51.828Z,1.00
2023-10-26T14:31:18.572Z,2.20
2023-10-26T14:33:45.322Z,1.10
2023-10-26T14:36:12.060Z,0.98
2023-10-26T14:38:38.715Z,1.10
2023-10-26T14:41:05.419Z,0.80
2023-10-26T14:43:32.131Z,2.10
2023-10-26T14:45:58.828Z,0.88
2023-10-26T14:48:25.689Z,1.05
2023-10-26T14:50:59.928Z,1.65
2023-10-26T14:53:26.887Z,1.55
2023-10-26T14:55:53.884Z,0.80
2023-10-26T14:58:21.979Z,1.63
2023-10-26T15:00:51.213Z,1.40
2023-10-26T15:03:18.031Z,1.10
2023-10-26T15:05:44.799Z,2.17
2023-10-26T15:08:11.901Z,1.27
2023-10-26T15:10:38.750Z,1.90
2023-10-26T15:13:06.091Z,2.20
2023-10-26T15:15:32.914Z,1.60
2023-10-26T15:18:00.000Z,2.03
2023-10-26T15:20:26.925Z,1.13
2023-10-26T15:22:59.227Z,1.90
2023-10-26T15:25:25.909Z,1.70
2023-10-26T15:27:53.696Z,1.50
2023-10-26T15:30:20.677Z,1.60
2023-10-26T15:32:47.452Z,1.30
2023-10-26T15:35:14.358Z,1.73
2023-10-26T15:37:41.071Z,1.98
2023-10-26T15:40:11.343Z,2.50
2023-10-26T15:42:38.085Z,1.67
2023-10-26T15:45:05.685Z,2.10
2023-10-26T15:47:32.388Z,1.75
2023-10-26T15:50:00.416Z,3.00
2023-10-26T15:52:27.130Z,1.63
2023-10-26T15:54:54.290Z,1.15
2023-10-26T15:57:21.123Z,6.30
2023-10-26T15:59:47.985Z,1.90
2023-10-26T16:02:14.773Z,1.73
2023-10-26T16:04:41.678Z,1.20
2023-10-26T16:07:08.346Z,1.90
2023-10-26T16:09:37.379Z,1.30
2023-10-26T16:12:05.015Z,1.20
2023-10-26T16:14:31.796Z,2.15
2023-10-26T16:16:58.521Z,1.88
2023-10-26T16:19:26.889Z,1.85
2023-10-26T16:21:53.759Z,1.38
2023-10-26T16:24:21.038Z,1.98
2023-10-26T16:26:48.046Z,2.25
2023-10-26T16:29:14.822Z,2.55
2023-10-26T16:31:41.516Z,22.77
2023-10-26T16:34:08.368Z,2.22
2023-10-26T16:36:35.148Z,1.80
2023-10-26T16:39:01.861Z,1.80
2023-10-26T16:41:28.629Z,1.40
2023-10-26T16:43:55.285Z,1.60
2023-10-26T16:46:22.133Z,1.35
2023-10-26T16:48:48.973Z,1.88
2023-10-26T16:51:16.351Z,1.58
2023-10-26T16:53:43.944Z,2.60
2023-10-26T16:56:10.921Z,3.42
2023-10-26T16:58:37.795Z,2.10
2023-10-26T17:01:06.788Z,1.48
2023-10-26T17:03:33.717Z,1.95
2023-10-26T17:06:00.431Z,2.03
2023-10-26T17:08:27.096Z,2.30
2023-10-26T17:10:53.954Z,1.80
2023-10-26T17:13:22.298Z,2.30
2023-10-26T17:15:52.614Z,3.65
2023-10-26T17:18:21.313Z,2.80
2023-10-26T17:20:48.366Z,2.38
2023-10-26T17:23:15.553Z,3.22
2023-10-26T17:25:42.632Z,7.28
2023-10-26T17:28:09.804Z,5.78
2023-10-26T17:30:38.050Z,5.57
2023-10-26T17:33:05.425Z,4.22
2023-10-26T17:35:38.858Z,7.18
2023-10-26T17:38:06.010Z,3.03
2023-10-26T17:40:32.781Z,4.80
2023-10-26T17:42:59.521Z,3.45
2023-10-26T17:45:26.767Z,2.30
2023-10-26T17:47:53.475Z,2.20
2023-10-26T17:50:20.145Z,6.57
2023-10-26T17:52:46.835Z,8.15
2023-10-26T17:55:14.778Z,7.60
2023-10-26T17:57:41.595Z,9.25
2023-10-26T18:00:09.623Z,7.82
2023-10-26T18:02:38.119Z,3.42
2023-10-26T18:05:05.249Z,6.63
2023-10-26T18:07:32.019Z,4.07
2023-10-26T18:09:58.686Z,3.83
2023-10-26T18:12:27.526Z,4.20
2023-10-26T18:14:54.250Z,5.60
2023-10-26T18:17:21.698Z,5.00
2023-10-26T18:19:48.464Z,4.03
2023-10-26T18:22:15.268Z,4.40
2023-10-26T18:24:42.214Z,2.90
2023-10-26T18:27:08.980Z,3.92
2023-10-26T18:29:35.741Z,3.15
2023-10-26T18:32:02.398Z,4.45
2023-10-26T18:34:29.056Z,6.00
2023-10-26T18:36:55.808Z,5.53
2023-10-26T18:39:22.639Z,6.10
2023-10-26T18:41:49.370Z,8.30
2023-10-26T18:44:16.222Z,6.47
2023-10-26T18:46:42.908Z,6.75
2023-10-26T18:49:10.021Z,7.28
2023-10-26T18:51:36.962Z,11.63
2023-10-26T18:54:04.603Z,9.63
2023-10-26T18:56:31.900Z,9.05
2023-10-26T18:59:00.226Z,9.18
2023-10-26T19:01:27.899Z,13.63
2023-10-26T19:04:02.669Z,11.32
2023-10-26T19:06:31.013Z,10.70
2023-10-26T19:08:58.140Z,9.73
2023-10-26T19:11:24.837Z,8.93
2023-10-26T19:13:51.911Z,8.38
2023-10-26T19:16:18.927Z,6.60
2023-10-26T19:18:45.842Z,6.72
2023-10-26T19:21:12.569Z,6.30
2023-10-26T19:23:39.262Z,6.40
2023-10-26T19:26:05.978Z,5.50
2023-10-26T19:28:35.204Z,2.85
2023-10-26T19:31:02.098Z,6.43
2023-10-26T19:33:28.779Z,5.47
2023-10-26T19:35:55.508Z,4.72
2023-10-26T19:38:22.178Z,6.35
2023-10-26T19:40:48.973Z,7.95
2023-10-26T19:43:15.686Z,5.00
2023-10-26T19:45:43.537Z,4.60
2023-10-26T19:48:10.492Z,5.25
2023-10-26T19:50:37.492Z,5.15
2023-10-26T19:53:04.887Z,4.63
2023-10-26T19:55:31.898Z,5.32
2023-10-26T19:57:58.701Z,6.00
2023-10-26T20:00:25.893Z,7.32
2023-10-26T20:02:52.594Z,6.63
2023-10-26T20:05:19.926Z,6.93
2023-10-26T20:07:46.597Z,8.18
2023-10-26T20:10:13.332Z,7.40
2023-10-26T20:12:40.175Z,8.05
2023-10-26T20:15:09.479Z,6.95
2023-10-26T20:17:36.308Z,7.90
2023-10-26T20:20:07.896Z,6.68
2023-10-26T20:22:35.023Z,7.05
2023-10-26T20:25:01.939Z,5.78
2023-10-26T20:27:28.730Z,4.57
2023-10-26T20:29:55.480Z,4.95
2023-10-26T20:32:22.739Z,5.25
2023-10-26T20:34:49.594Z,3.97
2023-10-26T20:37:16.436Z,4.78
2023-10-26T20:39:44.740Z,4.28
2023-10-26T20:42:11.668Z,5.10
2023-10-26T20:44:38.586Z,4.88
2023-10-26T20:47:06.290Z,5.07
2023-10-26T20:49:32.970Z,6.32
2023-10-26T20:51:59.764Z,4.78
2023-10-26T20:54:26.414Z,5.07
2023-10-26T20:56:53.112Z,5.18
2023-10-26T20:59:19.930Z,5.18
2023-10-26T21:01:46.695Z,5.93
2023-10-26T21:04:13.513Z,6.35
2023-10-26T21:06:40.241Z,7.72
2023-10-26T21:09:06.918Z,10.38
2023-10-26T21:11:33.658Z,12.52
2023-10-26T21:14:00.989Z,14.73
2023-10-26T21:16:27.902Z,11.80
2023-10-26T21:18:54.772Z,8.05
2023-10-26T21:21:21.470Z,3.42
2023-10-26T21:23:48.204Z,3.15
2023-10-26T21:26:15.018Z,3.53
2023-10-26T21:28:42.887Z,3.90
2023-10-26T21:31:09.927Z,4.38
2023-10-26T21:33:37.812Z,5.95
2023-10-26T21:36:06.080Z,6.53
2023-10-26T21:38:32.791Z,7.00
2023-10-26T21:41:05.118Z,6.78
2023-10-26T21:43:33.362Z,6.10
2023-10-26T21:46:06.813Z,6.53
2023-10-26T21:48:34.258Z,9.20
2023-10-26T21:51:12.279Z,6.90
2023-10-26T21:53:39.647Z,4.35
2023-10-26T21:56:06.791Z,3.72
2023-10-26T21:58:33.897Z,3.72
2023-10-26T22:01:00.716Z,3.97
2023-10-26T22:03:27.439Z,3.70
2023-10-26T22:05:54.103Z,4.10
2023-10-26T22:08:20.794Z,3.63
2023-10-26T22:10:47.484Z,4.22
2023-10-26T22:13:14.541Z,4.40
2023-10-26T22:15:41.287Z,3.25
2023-10-26T22:18:08.779Z,3.67
2023-10-26T22:20:37.400Z,5.15
2023-10-26T22:23:05.141Z,5.63
2023-10-26T22:25:32.316Z,4.32
2023-10-26T22:27:59.142Z,5.03
2023-10-26T22:30:26.022Z,3.60
2023-10-26T22:32:52.809Z,4.20
2023-10-26T22:35:20.123Z,3.47
2023-10-26T22:37:46.750Z,4.03
2023-10-26T22:40:13.751Z,3.80
2023-10-26T22:42:40.478Z,3.88
2023-10-26T22:45:07.792Z,3.72
2023-10-26T22:47:35.073Z,3.50
2023-10-26T22:50:02.095Z,4.18
2023-10-26T22:52:28.847Z,4.65
2023-10-26T22:54:55.671Z,5.05
2023-10-26T22:57:22.471Z,4.22
2023-10-26T22:59:55.994Z,5.70
2023-10-26T23:02:23.284Z,5.22
2023-10-26T23:04:52.061Z,3.17
2023-10-26T23:07:18.801Z,3.33
2023-10-26T23:09:46.196Z,3.00
2023-10-26T23:12:13.760Z,2.47
2023-10-26T23:14:40.422Z,2.28
2023-10-26T23:17:07.059Z,2.28
2023-10-26T23:19:33.766Z,2.28
2023-10-26T23:22:00.940Z,2.75
2023-10-26T23:24:31.913Z,2.67
2023-10-26T23:26:58.651Z,2.55
2023-10-26T23:29:26.892Z,3.30
2023-10-26T23:31:53.572Z,3.47
2023-10-26T23:34:20.313Z,4.15
2023-10-26T23:36:47.075Z,3.78
2023-10-26T23:39:13.870Z,3.70
2023-10-26T23:41:40.893Z,3.95
2023-10-26T23:44:08.198Z,3.95
2023-10-26T23:46:35.371Z,3.50
2023-10-26T23:49:02.123Z,3.83
2023-10-26T23:51:28.807Z,4.43
2023-10-26T23:53:55.537Z,3.83
2023-10-26T23:56:22.293Z,3.88
2023-10-26T23:58:48.954Z,3.67
